Time;durP1;ratioP1;P1;durP2;ratioP2;P2;SDS_P1;SDS_P2;PMS_P1;PMS_P2;Temp;Humidity;BMP_temperature;BMP_pressure;BME280_temperature;BME280_humidity;BME280_pressure;Samples;Min_cycle;Max_cycle;Signal;HPM_P1;HPM_P2
2023/06/01 00:00:24;;;;;;;1999.90;999.90;;;19.00;97.10;;;;;;5051893;28;20742;-71
2023/06/01 00:02:50;;;;;;;1999.90;999.90;;;18.90;97.50;;;;;;5051597;28;20175;-71
2023/06/01 00:05:16;;;;;;;1999.90;999.90;;;18.90;98.40;;;;;;5051788;28;20183;-71
2023/06/01 00:07:41;;;;;;;1999.90;999.90;;;18.90;99.60;;;;;;5051851;28;20173;-71
2023/06/01 00:10:07;;;;;;;1999.90;999.90;;;18.80;99.90;;;;;;5051892;28;20548;-71
2023/06/01 00:12:33;;;;;;;1999.90;999.90;;;18.90;99.90;;;;;;5051573;28;20204;-71
2023/06/01 00:14:59;;;;;;;1999.90;999.90;;;18.80;99.90;;;;;;5055945;28;20434;-71
2023/06/01 00:17:24;;;;;;;1999.90;999.90;;;18.80;99.90;;;;;;5055924;28;20207;-71
2023/06/01 00:19:52;;;;;;;1999.90;999.90;;;18.80;99.90;;;;;;5055684;28;20211;-71
2023/06/01 00:22:18;;;;;;;1999.90;999.90;;;18.70;99.90;;;;;;5055554;28;20180;-71
2023/06/01 00:24:44;;;;;;;1999.90;999.90;;;18.60;99.90;;;;;;5055775;28;20411;-71
2023/06/01 00:27:09;;;;;;;1999.90;999.90;;;18.60;99.90;;;;;;5055737;28;20648;-71
2023/06/01 00:29:35;;;;;;;1999.90;999.90;;;18.50;99.90;;;;;;5055689;28;20191;-71
2023/06/01 00:32:01;;;;;;;1999.90;999.90;;;18.50;99.90;;;;;;5055291;28;20204;-71
2023/06/01 00:34:26;;;;;;;1999.90;999.90;;;18.50;99.90;;;;;;5055573;28;20653;-71
2023/06/01 00:36:52;;;;;;;1999.90;999.90;;;18.40;99.90;;;;;;5055720;28;20609;-71
2023/06/01 00:39:17;;;;;;;1999.90;999.90;;;18.30;99.90;;;;;;5055445;28;20226;-71
2023/06/01 00:41:43;;;;;;;1999.90;999.90;;;18.30;99.90;;;;;;5055334;28;20696;-71
2023/06/01 00:44:08;;;;;;;1999.90;999.90;;;18.30;99.90;;;;;;5055430;28;20259;-71
2023/06/01 00:46:37;;;;;;;1999.90;999.90;;;18.30;99.90;;;;;;5055383;28;20195;-71
2023/06/01 00:49:02;;;;;;;1999.90;999.90;;;18.20;99.90;;;;;;5055172;28;20222;-71
2023/06/01 00:51:28;;;;;;;1999.90;999.90;;;18.20;99.90;;;;;;5054973;28;20495;-70
2023/06/01 00:53:54;;;;;;;1999.90;999.90;;;18.10;99.90;;;;;;5055225;28;20199;-70
2023/06/01 00:56:21;;;;;;;1999.90;999.90;;;18.10;99.90;;;;;;5055261;28;20183;-70
2023/06/01 00:58:46;;;;;;;1999.90;999.90;;;18.00;99.90;;;;;;5055193;28;20182;-70
2023/06/01 01:01:18;;;;;;;1999.90;999.90;;;18.00;99.90;;;;;;5054770;28;20854;-70
2023/06/01 01:03:49;;;;;;;1999.90;999.90;;;17.90;99.90;;;;;;5055058;28;20179;-70
2023/06/01 01:06:45;;;;;;;1999.90;999.90;;;17.90;99.90;;;;;;5055124;28;20402;-70
2023/06/01 01:09:20;;;;;;;1999.90;999.90;;;17.90;99.90;;;;;;5055014;28;20966;-70
2023/06/01 01:11:55;;;;;;;1999.90;999.90;;;17.90;99.90;;;;;;5054574;28;20495;-71
2023/06/01 01:14:25;;;;;;;1999.90;999.90;;;17.80;99.90;;;;;;5054826;28;20464;-70
2023/06/01 01:17:10;;;;;;;1999.90;999.90;;;17.70;99.90;;;;;;5054839;28;20420;-71
2023/06/01 01:19:44;;;;;;;1999.90;999.90;;;17.70;99.90;;;;;;5054649;28;20467;-71
2023/06/01 01:22:30;;;;;;;1999.90;999.90;;;17.70;99.90;;;;;;5054453;28;20428;-71
2023/06/01 01:25:09;;;;;;;1999.90;999.90;;;17.60;99.90;;;;;;5054405;28;20947;-71
2023/06/01 01:28:18;;;;;;;1999.90;999.90;;;17.60;99.90;;;;;;5054706;28;20400;-71
2023/06/01 01:30:45;;;;;;;1999.90;999.90;;;17.60;99.90;;;;;;5054564;28;20429;-71
2023/06/01 01:33:12;;;;;;;1999.90;999.90;;;17.60;99.90;;;;;;5054214;28;20454;-69
2023/06/01 01:35:38;;;;;;;1999.90;999.90;;;17.50;99.90;;;;;;5054459;28;20463;-69
2023/06/01 01:38:04;;;;;;;1999.90;999.90;;;17.50;99.90;;;;;;5054431;28;20406;-69
2023/06/01 01:40:30;;;;;;;1999.90;999.90;;;17.40;99.90;;;;;;5054246;28;20414;-69
2023/06/01 01:42:56;;;;;;;1999.90;999.90;;;17.40;99.90;;;;;;5054048;28;20182;-69
2023/06/01 01:45:22;;;;;;;1999.90;999.90;;;17.30;99.90;;;;;;5054264;28;20542;-70
2023/06/01 01:48:15;;;;;;;1999.90;999.90;;;17.30;99.90;;;;;;5054222;28;20442;-70
2023/06/01 01:50:55;;;;;;;1999.90;999.90;;;17.20;99.90;;;;;;5054109;28;20191;-70
2023/06/01 01:53:23;;;;;;;1999.90;999.90;;;17.20;99.90;;;;;;5054072;28;20401;-70
2023/06/01 01:55:50;;;;;;;1999.90;999.90;;;17.20;99.90;;;;;;5054226;28;20431;-70
2023/06/01 01:58:17;;;;;;;1999.90;999.90;;;17.10;99.90;;;;;;5054058;28;20398;-70
2023/06/01 02:00:43;;;;;;;1999.90;999.90;;;17.10;99.90;;;;;;5053873;28;20420;-70
2023/06/01 02:03:16;;;;;;;1999.90;999.90;;;17.10;99.90;;;;;;5053845;28;20842;-70
2023/06/01 02:05:42;;;;;;;1999.90;999.90;;;17.00;99.90;;;;;;5053964;28;20423;-71
2023/06/01 02:08:08;;;;;;;1999.90;999.90;;;17.00;99.90;;;;;;5053760;28;21131;-70
2023/06/01 02:10:34;;;;;;;1999.90;999.90;;;16.90;99.90;;;;;;5053748;28;20431;-70
2023/06/01 02:13:00;;;;;;;1999.90;999.90;;;16.90;99.90;;;;;;5053460;28;20448;-70
2023/06/01 02:15:25;;;;;;;1999.90;999.90;;;16.80;99.90;;;;;;5053643;28;20444;-70
2023/06/01 02:17:53;;;;;;;1999.90;999.90;;;16.80;99.90;;;;;;5053679;28;20278;-70
2023/06/01 02:20:19;;;;;;;1999.90;999.90;;;16.80;99.90;;;;;;5053580;28;20211;-70
2023/06/01 02:22:45;;;;;;;1999.90;999.90;;;16.70;99.90;;;;;;5053253;28;20413;-70
2023/06/01 02:25:10;;;;;;;1999.90;999.90;;;16.70;99.90;;;;;;5053541;28;20411;-70
2023/06/01 02:27:36;;;;;;;1999.90;999.90;;;16.60;99.90;;;;;;5053529;28;20166;-70
2023/06/01 02:30:02;;;;;;;1999.90;999.90;;;16.60;99.90;;;;;;5053430;28;20281;-70
2023/06/01 02:32:30;;;;;;;1999.90;999.90;;;16.40;99.90;;;;;;5053138;28;20210;-70
2023/06/01 02:34:56;;;;;;;1999.90;999.90;;;16.40;99.90;;;;;;5053327;28;20484;-70
2023/06/01 02:37:21;;;;;;;1999.90;999.90;;;16.30;99.90;;;;;;5052609;28;20844;-70
2023/06/01 02:39:47;;;;;;;1999.90;999.90;;;16.20;99.90;;;;;;5053291;28;20198;-70
2023/06/01 02:42:13;;;;;;;1999.90;999.90;;;16.10;99.90;;;;;;5053085;28;20260;-70
2023/06/01 02:44:39;;;;;;;1999.90;999.90;;;16.00;99.90;;;;;;5053148;28;20488;-70
2023/06/01 02:47:05;;;;;;;1999.90;999.90;;;15.90;99.90;;;;;;5053289;28;20765;-70
2023/06/01 02:49:30;;;;;;;1999.90;999.90;;;15.80;99.90;;;;;;5053021;28;20634;-70
2023/06/01 02:51:56;;;;;;;1999.90;999.90;;;15.80;99.90;;;;;;5052652;28;20451;-69
2023/06/01 02:54:22;;;;;;;1999.90;999.90;;;15.70;99.90;;;;;;5052886;28;20600;-69
2023/06/01 02:56:47;;;;;;;1999.90;999.90;;;15.50;99.90;;;;;;5052963;28;20196;-70
2023/06/01 02:59:13;;;;;;;1999.90;999.90;;;15.40;99.90;;;;;;5052812;28;20189;-69
2023/06/01 03:01:39;;;;;;;1999.90;999.90;;;15.30;99.90;;;;;;5052595;28;20165;-70
2023/06/01 03:04:04;;;;;;;1999.90;999.90;;;15.10;99.90;;;;;;5052827;28;20179;-70
2023/06/01 03:06:37;;;;;;;1999.90;999.90;;;14.90;99.90;;;;;;5052657;28;20195;-69
2023/06/01 03:09:03;;;;;;;1999.90;999.90;;;14.80;99.90;;;;;;5052604;28;20168;-69
2023/06/01 03:11:29;;;;;;;1999.90;999.90;;;14.60;99.90;;;;;;5052318;28;20445;-70
2023/06/01 03:13:56;;;;;;;1999.90;999.90;;;14.50;99.90;;;;;;5052643;28;20404;-69
2023/06/01 03:16:23;;;;;;;1999.90;999.90;;;14.40;99.90;;;;;;5052605;28;20557;-69
2023/06/01 03:18:48;;;;;;;1999.90;999.90;;;14.40;99.90;;;;;;5052323;28;20926;-69
2023/06/01 03:21:15;;;;;;;1999.90;999.90;;;14.30;99.90;;;;;;5052140;28;20496;-70
2023/06/01 03:23:43;;;;;;;1999.90;999.90;;;14.30;99.90;;;;;;5052603;28;20172;-70
2023/06/01 03:26:12;;;;;;;1999.90;999.90;;;14.20;99.90;;;;;;5053830;28;20414;-70
2023/06/01 03:28:38;;;;;;;1999.90;999.90;;;14.10;99.90;;;;;;5052477;28;20434;-70
2023/06/01 03:31:04;;;;;;;1999.90;999.90;;;14.10;99.90;;;;;;5051942;28;20429;-70
2023/06/01 03:33:29;;;;;;;1999.90;999.90;;;14.00;99.90;;;;;;5052223;28;20898;-70
2023/06/01 03:35:56;;;;;;;1999.90;999.90;;;13.80;99.90;;;;;;5052209;28;20174;-70
2023/06/01 03:38:21;;;;;;;1999.90;999.90;;;13.80;99.90;;;;;;5052335;28;20177;-70
2023/06/01 03:40:47;;;;;;;1999.90;999.90;;;13.80;99.90;;;;;;5052052;28;20421;-70
2023/06/01 03:43:13;;;;;;;1999.90;999.90;;;13.70;99.90;;;;;;5051944;28;20167;-70
2023/06/01 03:45:38;;;;;;;1999.90;999.90;;;13.70;99.90;;;;;;5052082;28;20239;-70
2023/06/01 03:48:04;;;;;;;1999.90;999.90;;;13.60;99.90;;;;;;5052048;28;20221;-70
2023/06/01 03:50:30;;;;;;;1999.90;999.90;;;13.70;99.90;;;;;;5051949;28;20283;-70
2023/06/01 03:52:55;;;;;;;1999.90;999.90;;;13.60;99.90;;;;;;5051603;28;20460;-70
2023/06/01 03:55:22;;;;;;;1999.90;999.90;;;13.60;99.90;;;;;;5052053;28;20171;-70
2023/06/01 03:57:48;;;;;;;1999.90;999.90;;;13.50;99.90;;;;;;5051928;28;20166;-70
2023/06/01 04:00:20;;;;;;;1999.90;999.90;;;13.40;99.90;;;;;;5051837;28;20424;-70
2023/06/01 04:02:52;;;;;;;1999.90;999.90;;;13.30;99.90;;;;;;5051685;28;20233;-70
2023/06/01 04:05:18;;;;;;;1999.90;999.90;;;13.20;99.90;;;;;;5051804;28;20864;-70
2023/06/01 04:07:46;;;;;;;1999.90;999.90;;;13.20;99.90;;;;;;5051774;28;20408;-70
2023/06/01 04:10:13;;;;;;;1999.90;999.90;;;13.20;99.90;;;;;;5051924;28;20797;-70
2023/06/01 04:12:43;;;;;;;1999.90;999.90;;;13.10;99.90;;;;;;5051471;28;20460;-70
2023/06/01 04:15:13;;;;;;;1999.90;999.90;;;13.00;99.90;;;;;;5051833;28;20435;-70
2023/06/01 04:17:40;;;;;;;1999.90;999.90;;;13.00;99.90;;;;;;5051767;28;20419;-70
2023/06/01 04:20:10;;;;;;;1999.90;999.90;;;13.00;99.90;;;;;;5051575;28;20443;-70
2023/06/01 04:22:36;;;;;;;1999.90;999.90;;;12.90;99.90;;;;;;5051488;28;20425;-70
2023/06/01 04:25:05;;;;;;;1999.90;999.90;;;12.90;99.90;;;;;;5051686;28;20444;-70
2023/06/01 04:27:31;;;;;;;1999.90;999.90;;;12.90;99.90;;;;;;5051661;28;20400;-70
2023/06/01 04:29:58;;;;;;;1999.90;999.90;;;12.80;99.90;;;;;;5051511;28;20440;-70
2023/06/01 04:32:24;;;;;;;1999.90;999.90;;;12.80;99.90;;;;;;5051460;28;20227;-70
2023/06/01 04:34:50;;;;;;;1999.90;999.90;;;12.70;99.90;;;;;;5051581;28;20416;-70
2023/06/01 04:37:21;;;;;;;1999.90;999.90;;;12.80;99.90;;;;;;5051590;28;20400;-70
2023/06/01 04:39:50;;;;;;;1999.90;999.90;;;12.70;99.90;;;;;;5051541;28;20427;-70
2023/06/01 04:42:16;;;;;;;1999.90;999.90;;;12.70;99.90;;;;;;5051201;28;20432;-70
2023/06/01 04:44:45;;;;;;;1999.90;999.90;;;12.80;99.90;;;;;;5051714;28;20420;-70
2023/06/01 04:47:10;;;;;;;1999.90;999.90;;;12.80;99.90;;;;;;5051475;28;20930;-70
2023/06/01 04:49:36;;;;;;;1999.90;999.90;;;12.90;99.90;;;;;;5051322;28;20435;-70
2023/06/01 04:52:04;;;;;;;1999.90;999.90;;;13.00;99.90;;;;;;5051088;28;20200;-70
2023/06/01 04:54:29;;;;;;;1999.90;999.90;;;13.10;99.90;;;;;;5052716;28;20463;-69
2023/06/01 04:56:55;;;;;;;1999.90;999.90;;;13.20;99.90;;;;;;5055471;28;20406;-70
2023/06/01 04:59:21;;;;;;;1999.90;999.90;;;13.30;99.90;;;;;;5056936;28;20582;-70
2023/06/01 05:01:46;;;;;;;1999.90;999.90;;;13.40;99.90;;;;;;5058919;28;20167;-70
2023/06/01 05:04:12;;;;;;;1999.90;999.90;;;13.60;99.90;;;;;;5059396;28;20204;-70
2023/06/01 05:06:38;;;;;;;1999.90;999.90;;;13.60;99.90;;;;;;5058798;28;20183;-69
2023/06/01 05:09:04;;;;;;;1999.90;999.90;;;13.60;99.90;;;;;;5059425;28;20235;-69
2023/06/01 05:11:30;;;;;;;1999.90;999.90;;;13.60;99.90;;;;;;5058600;28;20282;-69
2023/06/01 05:14:01;;;;;;;1999.90;999.90;;;13.50;99.90;;;;;;5059163;28;20832;-69
2023/06/01 05:16:27;;;;;;;1999.90;999.90;;;13.40;99.90;;;;;;5058846;28;20186;-69
2023/06/01 05:18:53;;;;;;;1999.90;999.90;;;13.30;99.90;;;;;;5059620;28;20405;-69
2023/06/01 05:21:18;;;;;;;1999.90;999.90;;;13.30;99.90;;;;;;5059241;28;20404;-70
2023/06/01 05:23:44;;;;;;;1999.90;999.90;;;13.30;99.90;;;;;;5055424;28;20488;-69
2023/06/01 05:26:10;;;;;;;1999.90;999.90;;;13.30;99.90;;;;;;5054576;28;20181;-70
2023/06/01 05:28:35;;;;;;;1999.90;999.90;;;13.30;99.90;;;;;;5054621;28;20181;-70
2023/06/01 05:31:02;;;;;;;1999.90;999.90;;;13.40;99.90;;;;;;5054166;28;20229;-70
2023/06/01 05:33:27;;;;;;;1999.90;999.90;;;13.70;99.90;;;;;;5054591;28;20199;-70
2023/06/01 05:35:53;;;;;;;1999.90;999.90;;;13.90;99.90;;;;;;5054408;28;20939;-70
2023/06/01 05:38:19;;;;;;;1999.90;999.90;;;13.90;99.90;;;;;;5054465;28;20246;-70
2023/06/01 05:40:45;;;;;;;1999.90;999.90;;;13.90;99.90;;;;;;5054277;28;20184;-70
2023/06/01 05:43:11;;;;;;;1999.90;999.90;;;14.10;99.90;;;;;;5054097;28;20178;-70
2023/06/01 05:45:36;;;;;;;1999.90;999.90;;;14.30;99.90;;;;;;5054328;28;20402;-70
2023/06/01 05:48:02;;;;;;;1999.90;999.90;;;14.20;99.90;;;;;;5054452;28;20416;-70
2023/06/01 05:50:28;;;;;;;1999.90;999.90;;;14.00;99.90;;;;;;5054113;28;20676;-70
2023/06/01 05:52:53;;;;;;;1999.90;999.90;;;13.80;99.90;;;;;;5053873;28;20200;-70
2023/06/01 05:55:19;;;;;;;1999.90;999.90;;;13.70;99.90;;;;;;5054143;28;20171;-70
2023/06/01 05:57:48;;;;;;;1999.90;999.90;;;13.70;99.90;;;;;;5054000;28;20164;-70
2023/06/01 06:00:15;;;;;;;1999.90;999.90;;;13.80;99.90;;;;;;5054156;28;20510;-69
2023/06/01 06:02:44;;;;;;;1999.90;999.90;;;13.70;99.90;;;;;;5053801;28;20419;-70
2023/06/01 06:05:09;;;;;;;1999.90;999.90;;;13.70;99.90;;;;;;5053898;28;20493;-69
2023/06/01 06:07:36;;;;;;;1999.90;999.90;;;13.60;99.90;;;;;;5053931;28;20497;-70
2023/06/01 06:10:02;;;;;;;1999.90;999.90;;;13.70;99.90;;;;;;5053317;28;20194;-70
2023/06/01 06:12:28;;;;;;;1999.90;999.90;;;13.80;99.90;;;;;;5053469;28;20564;-70
2023/06/01 06:14:54;;;;;;;1999.90;999.90;;;13.70;99.90;;;;;;5056395;28;20434;-70
2023/06/01 06:17:21;;;;;;;1999.90;999.90;;;13.60;99.90;;;;;;5056804;28;20178;-69
2023/06/01 06:19:47;;;;;;;1999.90;999.90;;;13.80;99.90;;;;;;5055136;28;20207;-69
2023/06/01 06:22:13;;;;;;;1999.90;999.90;;;14.00;99.90;;;;;;5053383;28;20409;-69
2023/06/01 06:24:39;;;;;;;1999.90;999.90;;;14.20;99.90;;;;;;5053445;28;20436;-69
2023/06/01 06:27:05;;;;;;;1999.90;999.90;;;14.50;99.90;;;;;;5053533;28;20443;-69
2023/06/01 06:29:32;;;;;;;1999.90;999.90;;;14.60;99.90;;;;;;5053401;28;20678;-69
2023/06/01 06:31:57;;;;;;;1999.90;999.90;;;15.00;99.90;;;;;;5053124;28;20449;-69
2023/06/01 06:34:24;;;;;;;1999.90;999.90;;;15.10;99.90;;;;;;5053373;28;20440;-69
2023/06/01 06:36:52;;;;;;;1999.90;999.90;;;15.30;99.90;;;;;;5053360;28;20413;-70
2023/06/01 06:39:17;;;;;;;1999.90;999.90;;;15.30;99.90;;;;;;5053362;28;20228;-69
2023/06/01 06:41:43;;;;;;;1999.90;999.90;;;14.90;99.90;;;;;;5053000;28;20939;-70
2023/06/01 06:44:08;;;;;;;1999.90;999.90;;;14.70;99.90;;;;;;5053342;28;20178;-69
2023/06/01 06:46:34;;;;;;;1999.90;999.90;;;14.40;99.90;;;;;;5053182;28;20170;-70
2023/06/01 06:49:00;;;;;;;1999.90;999.90;;;14.00;99.90;;;;;;5053083;28;20207;-69
2023/06/01 06:51:26;;;;;;;1999.90;999.90;;;13.70;99.90;;;;;;5052676;28;20202;-69
2023/06/01 06:53:51;;;;;;;1999.90;999.90;;;13.60;99.90;;;;;;5052996;28;20403;-69
2023/06/01 06:56:17;;;;;;;1999.90;999.90;;;13.40;99.90;;;;;;5053027;28;20185;-69
2023/06/01 06:58:43;;;;;;;1999.90;999.90;;;13.40;99.90;;;;;;5052954;28;20174;-69
2023/06/01 07:01:09;;;;;;;1999.90;999.90;;;13.40;99.90;;;;;;5052500;28;20206;-69
2023/06/01 07:03:35;;;;;;;1999.90;999.90;;;13.40;99.90;;;;;;5052859;28;20402;-69
2023/06/01 07:06:01;;;;;;;1999.90;999.90;;;13.30;99.90;;;;;;5052687;28;20640;-69
2023/06/01 07:08:26;;;;;;;1999.90;999.90;;;13.30;99.90;;;;;;5052700;28;20536;-69
2023/06/01 07:10:55;;;;;;;1999.90;999.90;;;13.30;99.90;;;;;;5052483;28;20195;-69
2023/06/01 07:13:21;;;;;;;1999.90;999.90;;;13.30;99.90;;;;;;5052678;28;20340;-69
2023/06/01 07:15:47;;;;;;;1999.90;999.90;;;13.50;99.90;;;;;;5052587;28;20413;-69
2023/06/01 07:18:12;;;;;;;1999.90;999.90;;;13.50;99.90;;;;;;5052533;28;20410;-69
2023/06/01 07:20:38;;;;;;;1999.90;999.90;;;13.60;99.90;;;;;;5052278;28;20205;-68
2023/06/01 07:23:03;;;;;;;1999.90;999.90;;;13.60;99.90;;;;;;5051999;28;20600;-69
2023/06/01 07:25:29;;;;;;;1999.90;999.90;;;13.40;99.90;;;;;;5052291;28;20656;-69
2023/06/01 07:27:56;;;;;;;1999.90;999.90;;;13.50;99.90;;;;;;5052379;28;20225;-69
2023/06/01 07:30:22;;;;;;;1999.90;999.90;;;13.60;99.90;;;;;;5052253;28;20199;-69
2023/06/01 07:32:47;;;;;;;1999.90;999.90;;;13.70;99.90;;;;;;5051925;28;20461;-68
2023/06/01 07:35:13;;;;;;;1999.90;999.90;;;13.70;99.90;;;;;;5052264;28;20172;-69
2023/06/01 07:37:40;;;;;;;1999.90;999.90;;;13.90;99.90;;;;;;5052278;28;20174;-68
2023/06/01 07:40:06;;;;;;;1999.90;999.90;;;14.00;99.90;;;;;;5052150;28;20562;-69
2023/06/01 07:42:32;;;;;;;1999.90;999.90;;;14.00;99.90;;;;;;5051859;28;20510;-69
2023/06/01 07:44:58;;;;;;;1999.90;999.90;;;14.10;99.90;;;;;;5052115;28;20848;-69
2023/06/01 07:47:25;;;;;;;1999.90;999.90;;;14.40;99.90;;;;;;5052083;28;20171;-69
2023/06/01 07:49:51;;;;;;;1999.90;999.90;;;14.40;99.90;;;;;;5051957;28;20278;-69
2023/06/01 07:52:17;;;;;;;1999.90;999.90;;;14.20;99.90;;;;;;5052596;28;20484;-69
2023/06/01 07:54:43;;;;;;;1999.90;999.90;;;14.40;99.90;;;;;;5054391;28;20424;-70
2023/06/01 07:57:08;;;;;;;1999.90;999.90;;;14.80;99.90;;;;;;5054706;28;20491;-70
2023/06/01 07:59:34;;;;;;;1999.90;999.90;;;15.30;99.90;;;;;;5054069;28;20289;-70
2023/06/01 08:02:00;;;;;;;1999.90;999.90;;;15.70;99.90;;;;;;5054078;28;20545;-71
2023/06/01 08:04:27;;;;;;;1999.90;999.90;;;15.70;99.90;;;;;;5054776;28;20647;-70
2023/06/01 08:06:53;;;;;;;1999.90;999.90;;;15.80;99.90;;;;;;5054454;28;20412;-70
2023/06/01 08:09:23;;;;;;;1999.90;999.90;;;16.20;99.90;;;;;;5054591;28;20434;-70
2023/06/01 08:11:49;;;;;;;1999.90;999.90;;;16.30;99.90;;;;;;5054311;28;20460;-69
2023/06/01 08:14:15;;;;;;;1999.90;999.90;;;15.60;99.90;;;;;;5054558;28;20398;-69
2023/06/01 08:16:41;;;;;;;1999.90;999.90;;;15.30;99.90;;;;;;5054783;28;20813;-70
2023/06/01 08:19:07;;;;;;;1999.90;999.90;;;14.90;99.90;;;;;;5054672;28;20429;-70
2023/06/01 08:21:34;;;;;;;1999.90;999.90;;;14.90;99.90;;;;;;5054166;28;20445;-70
2023/06/01 08:24:01;;;;;;;1999.90;999.90;;;15.20;99.90;;;;;;5054667;28;20406;-70
2023/06/01 08:26:27;;;;;;;1999.90;999.90;;;15.30;99.90;;;;;;5054534;28;20415;-70
2023/06/01 08:28:53;;;;;;;1999.90;999.90;;;15.40;99.90;;;;;;5054403;28;20765;-70
2023/06/01 08:31:23;;;;;;;1999.90;999.90;;;15.60;99.90;;;;;;5054691;28;20421;-70
2023/06/01 08:33:50;;;;;;;1999.90;999.90;;;15.90;99.90;;;;;;5055165;28;20200;-69
2023/06/01 08:36:17;;;;;;;1999.90;999.90;;;15.70;99.90;;;;;;5058281;28;20405;-69
2023/06/01 08:38:43;;;;;;;1999.90;999.90;;;15.60;99.90;;;;;;5058896;28;20436;-70
2023/06/01 08:41:35;;;;;;;1999.90;999.90;;;15.90;99.90;;;;;;5057484;28;20924;-70
2023/06/01 08:44:06;;;;;;;1999.90;999.90;;;16.20;99.90;;;;;;5057094;28;20412;-70
2023/06/01 08:46:34;;;;;;;1999.90;999.90;;;16.30;99.90;;;;;;5055393;28;20401;-70
2023/06/01 08:49:01;;;;;;;1999.90;999.90;;;16.40;99.90;;;;;;5055438;28;20751;-70
2023/06/01 08:51:27;;;;;;;1999.90;999.90;;;16.50;99.90;;;;;;5055116;28;20447;-70
2023/06/01 08:53:56;;;;;;;1999.90;999.90;;;16.70;99.90;;;;;;5055363;28;20404;-70
2023/06/01 08:56:22;;;;;;;1999.90;999.90;;;16.70;99.90;;;;;;5055222;28;20417;-70
2023/06/01 08:58:50;;;;;;;1999.90;999.90;;;16.80;99.90;;;;;;5055254;28;20461;-70
2023/06/01 09:01:18;;;;;;;1999.90;999.90;;;17.00;99.90;;;;;;5055008;28;20494;-70
2023/06/01 09:03:44;;;;;;;1999.90;999.90;;;17.20;99.90;;;;;;5055302;28;20404;-70
2023/06/01 09:06:10;;;;;;;1999.90;999.90;;;17.20;99.90;;;;;;5055091;28;20413;-70
2023/06/01 09:08:36;;;;;;;1999.90;999.90;;;17.40;99.90;;;;;;5055013;28;20399;-70
2023/06/01 09:11:02;;;;;;;1999.90;999.90;;;17.60;99.90;;;;;;5054553;28;20470;-70
2023/06/01 09:13:35;;;;;;;1999.90;999.90;;;17.90;99.90;;;;;;5054900;28;20301;-70
2023/06/01 09:16:01;;;;;;;1999.90;999.90;;;18.00;99.90;;;;;;5058031;28;20295;-70
2023/06/01 09:18:27;;;;;;;1999.90;999.90;;;18.20;99.90;;;;;;5057784;28;20435;-70
2023/06/01 09:20:53;;;;;;;1999.90;999.90;;;18.10;99.90;;;;;;5057120;28;20973;-70
2023/06/01 09:23:26;;;;;;;1999.90;999.90;;;17.90;99.90;;;;;;5057870;28;20440;-70
2023/06/01 09:26:09;;;;;;;1999.90;999.90;;;17.70;99.90;;;;;;5097369;22;20514;-68
2023/06/01 09:29:00;;;;;;;1999.90;999.90;;;17.90;99.90;;;;;;5054834;28;20490;-69
2023/06/01 09:31:49;;;;;;;1999.90;999.90;;;18.00;99.90;;;;;;5054421;28;20809;-69
2023/06/01 09:34:19;;;;;;;1999.90;999.90;;;18.30;99.90;;;;;;5054658;28;20441;-68
2023/06/01 09:36:46;;;;;;;1999.90;999.90;;;18.00;99.90;;;;;;5064811;28;20526;-69
2023/06/01 09:39:14;;;;;;;1999.90;999.90;;;18.00;99.90;;;;;;5073188;28;20422;-69
2023/06/01 09:41:51;;;;;;;1999.90;999.90;;;18.20;99.90;;;;;;5074260;28;20413;-69
2023/06/01 09:44:23;;;;;;;1999.90;999.90;;;18.20;99.90;;;;;;5074547;28;20408;-69
2023/06/01 09:46:51;;;;;;;1999.90;999.90;;;18.30;99.90;;;;;;5074190;28;20435;-69
2023/06/01 09:49:28;;;;;;;1999.90;999.90;;;18.30;99.90;;;;;;5074306;28;20413;-69
2023/06/01 09:52:03;;;;;;;1999.90;999.90;;;18.50;99.90;;;;;;5074087;28;20464;-69
2023/06/01 09:54:31;;;;;;;1999.90;999.90;;;18.60;99.90;;;;;;5074225;28;20435;-69
2023/06/01 09:56:57;;;;;;;1999.90;999.90;;;18.50;99.90;;;;;;5074126;28;20960;-69
2023/06/01 09:59:24;;;;;;;1999.90;999.90;;;18.80;99.90;;;;;;5074122;28;20404;-68
2023/06/01 10:01:54;;;;;;;1999.90;999.90;;;18.80;99.90;;;;;;5073866;28;20447;-69
2023/06/01 10:04:28;;;;;;;1999.90;999.90;;;18.60;99.90;;;;;;5073909;28;20920;-69
2023/06/01 10:06:56;;;;;;;1999.90;999.90;;;18.80;99.90;;;;;;5073890;28;20483;-69
2023/06/01 10:09:24;;;;;;;1999.90;999.90;;;19.00;99.90;;;;;;5073861;28;20435;-69
2023/06/01 10:11:53;;;;;;;1999.90;999.90;;;19.30;99.90;;;;;;5073658;28;20480;-69
2023/06/01 10:14:23;;;;;;;1999.90;999.90;;;19.20;99.90;;;;;;5073765;28;20821;-69
2023/06/01 10:16:51;;;;;;;1999.90;999.90;;;19.10;99.90;;;;;;5073926;28;20428;-68
2023/06/01 10:19:17;;;;;;;1999.90;999.90;;;19.20;99.90;;;;;;5073698;28;20904;-69
2023/06/01 10:21:45;;;;;;;1999.90;999.90;;;19.20;99.90;;;;;;5073501;28;20484;-69
2023/06/01 10:24:12;;;;;;;1999.90;999.90;;;19.40;99.90;;;;;;5073534;28;20410;-70
2023/06/01 10:27:05;;;;;;;1999.90;999.90;;;19.50;99.90;;;;;;5073383;28;20823;-69
2023/06/01 10:29:32;;;;;;;1999.90;999.90;;;19.70;99.90;;;;;;5073389;28;20407;-69
2023/06/01 10:31:58;;;;;;;1999.90;999.90;;;19.60;99.90;;;;;;5073047;28;20826;-68
2023/06/01 10:34:44;;;;;;;1999.90;999.90;;;19.50;99.90;;;;;;5073413;28;20407;-69
2023/06/01 10:37:16;;;;;;;1999.90;999.90;;;19.30;99.90;;;;;;5073295;28;20179;-69
2023/06/01 10:39:42;;;;;;;1999.90;999.90;;;19.10;99.90;;;;;;5073275;28;20613;-68
2023/06/01 10:42:14;;;;;;;1999.90;999.90;;;19.10;99.90;;;;;;5072967;28;20815;-68
2023/06/01 10:44:42;;;;;;;1999.90;999.90;;;19.20;99.90;;;;;;5073166;28;20405;-68
2023/06/01 10:47:10;;;;;;;1999.90;999.90;;;19.20;99.90;;;;;;5073051;28;20628;-68
2023/06/01 10:49:48;;;;;;;1999.90;999.90;;;19.30;99.90;;;;;;5073012;28;20405;-69
2023/06/01 10:52:46;;;;;;;1999.90;999.90;;;19.60;99.90;;;;;;5052712;28;20461;-68
2023/06/01 10:55:20;;;;;;;1999.90;999.90;;;19.30;99.90;;;;;;5025235;28;20432;-69
2023/06/01 10:57:46;;;;;;;1999.90;999.90;;;19.40;99.90;;;;;;5072373;28;20797;-69
2023/06/01 11:00:26;;;;;;;1999.90;999.90;;;19.60;99.90;;;;;;5065092;28;20410;-68
2023/06/01 11:03:00;;;;;;;1999.90;999.90;;;19.70;99.90;;;;;;5052624;28;20778;-69
2023/06/01 11:05:41;;;;;;;1999.90;999.90;;;19.70;99.90;;;;;;5052672;28;20454;-70
2023/06/01 11:08:25;;;;;;;1999.90;999.90;;;20.10;99.90;;;;;;5052763;28;20923;-68
2023/06/01 11:10:54;;;;;;;1999.90;999.90;;;20.10;99.90;;;;;;5052613;28;20774;-69
2023/06/01 11:13:27;;;;;;;1999.90;999.90;;;20.30;99.90;;;;;;5049441;28;20462;-69
2023/06/01 11:16:09;;;;;;;1999.90;999.90;;;20.50;99.90;;;;;;5052174;28;20780;-69
2023/06/01 11:18:43;;;;;;;1999.90;999.90;;;20.90;99.90;;;;;;5052553;28;20423;-69
2023/06/01 11:21:10;;;;;;;1999.90;999.90;;;21.10;97.20;;;;;;5051362;28;20966;-69
2023/06/01 11:23:38;;;;;;;1999.90;999.90;;;21.10;95.90;;;;;;5071236;28;20512;-69
2023/06/01 11:26:07;;;;;;;1999.90;999.90;;;21.30;94.00;;;;;;5072168;28;20987;-69
2023/06/01 11:28:33;;;;;;;1999.90;999.90;;;20.80;95.70;;;;;;5071564;28;20414;-70
2023/06/01 11:31:08;;;;;;;1999.90;999.90;;;20.60;97.40;;;;;;5071718;28;20513;-70
2023/06/01 11:33:35;;;;;;;1999.90;999.90;;;20.70;97.90;;;;;;5072002;28;20506;-69
2023/06/01 11:36:04;;;;;;;1999.90;999.90;;;20.90;96.60;;;;;;5071361;28;20442;-69
2023/06/01 11:38:39;;;;;;;1999.90;999.90;;;21.00;99.10;;;;;;5071878;28;20407;-70
2023/06/01 11:41:05;;;;;;;1999.90;999.90;;;21.20;96.40;;;;;;5059172;28;20390;-69
2023/06/01 11:43:31;;;;;;;1999.90;999.90;;;21.50;95.10;;;;;;5053741;28;20442;-70
2023/06/01 11:46:04;;;;;;;1999.90;999.90;;;21.40;92.70;;;;;;5051670;28;20429;-69
2023/06/01 11:48:30;;;;;;;1999.90;999.90;;;21.40;90.80;;;;;;5051824;28;20441;-69
2023/06/01 11:50:58;;;;;;;1999.90;999.90;;;21.30;86.70;;;;;;5050832;28;20413;-69
2023/06/01 11:53:24;;;;;;;1999.90;999.90;;;21.10;83.30;;;;;;5051589;28;20485;-69
2023/06/01 11:55:52;;;;;;;1999.90;999.90;;;21.50;89.10;;;;;;5051441;28;20417;-70
2023/06/01 11:58:36;;;;;;;1999.90;999.90;;;22.10;89.10;;;;;;5051117;28;20377;-70
2023/06/01 12:01:04;;;;;;;1999.90;999.90;;;22.70;81.40;;;;;;5070157;28;20440;-69
2023/06/01 12:03:31;;;;;;;1999.90;999.90;;;23.40;72.50;;;;;;5071469;28;20504;-70